createdAt,value
2022-08-22T00:02:19.480Z,45.35
2022-08-22T00:02:44.177Z,44.07
2022-08-22T00:02:57.731Z,44.63
2022-08-22T00:04:56.903Z,45.54
2022-08-22T00:07:46.351Z,46.26
2022-08-22T00:10:25.150Z,46.53
2022-08-22T00:13:02.751Z,46.39
2022-08-22T00:15:43.289Z,46.49
2022-08-22T00:18:19.147Z,46.72
2022-08-22T00:20:52.869Z,46.19
2022-08-22T00:23:30.160Z,46.29
2022-08-22T00:26:04.010Z,46.53
2022-08-22T00:28:40.559Z,46.17
2022-08-22T00:31:25.207Z,46.55
2022-08-22T00:34:03.003Z,45.93
2022-08-22T00:36:40.322Z,45.92
2022-08-22T00:39:17.369Z,46.65
2022-08-22T00:42:37.400Z,46.35
2022-08-22T00:45:47.769Z,47.12
2022-08-22T00:48:55.942Z,47.01
2022-08-22T00:52:13.683Z,47.18
2022-08-22T00:55:12.196Z,47.13
2022-08-22T00:58:05.780Z,46.67
2022-08-22T01:00:42.159Z,46.52
2022-08-22T01:03:58.619Z,47.64
2022-08-22T01:06:44.928Z,47.03
2022-08-22T01:09:31.716Z,47.69
2022-08-22T01:12:19.434Z,47.58
2022-08-22T01:14:55.814Z,47.66
2022-08-22T01:17:54.780Z,47.70
2022-08-22T01:21:30.299Z,47.53
2022-08-22T01:25:21.921Z,47.79
2022-08-22T01:28:24.023Z,47.33
2022-08-22T01:31:40.967Z,47.30
2022-08-22T01:35:15.908Z,47.72
2022-08-22T01:38:34.438Z,47.17
2022-08-22T01:41:44.466Z,48.02
2022-08-22T01:44:35.831Z,47.54
2022-08-22T01:47:11.984Z,47.86
2022-08-22T01:49:51.593Z,47.68
2022-08-22T01:52:42.302Z,47.81
2022-08-22T01:55:21.454Z,48.03
2022-08-22T01:57:53.457Z,47.54
2022-08-22T02:00:35.318Z,47.82
2022-08-22T02:03:25.654Z,47.84
2022-08-22T02:06:05.033Z,48.23
2022-08-22T02:08:53.379Z,47.83
2022-08-22T02:11:42.522Z,48.43
2022-08-22T02:14:32.897Z,48.13
2022-08-22T02:17:18.977Z,47.82
2022-08-22T02:20:01.704Z,48.06
2022-08-22T02:22:44.345Z,47.93
2022-08-22T02:25:19.424Z,48.61
2022-08-22T02:27:57.511Z,48.13
2022-08-22T02:30:43.850Z,48.21
2022-08-22T02:33:25.423Z,48.63
2022-08-22T02:36:02.513Z,48.35
2022-08-22T02:38:39.056Z,48.85
2022-08-22T02:41:16.428Z,48.87
2022-08-22T02:43:54.642Z,48.33
2022-08-22T02:46:31.630Z,48.49
2022-08-22T02:49:09.047Z,48.42
2022-08-22T02:51:53.297Z,48.88
2022-08-22T02:54:35.037Z,48.65
2022-08-22T02:57:11.441Z,49.32
2022-08-22T03:00:25.027Z,49.61
2022-08-22T03:03:15.877Z,49.93
2022-08-22T03:06:01.390Z,49.72
2022-08-22T03:08:32.512Z,50.00
2022-08-22T03:11:18.016Z,49.34
2022-08-22T03:13:58.171Z,49.77
2022-08-22T03:16:36.823Z,49.28
2022-08-22T03:19:18.959Z,49.69
2022-08-22T03:21:57.372Z,49.56
2022-08-22T03:24:34.046Z,49.51
2022-08-22T03:27:14.221Z,49.59
2022-08-22T03:30:06.434Z,49.46
2022-08-22T03:32:55.635Z,50.07
2022-08-22T03:35:36.473Z,49.74
2022-08-22T03:38:21.283Z,49.96
2022-08-22T03:41:49.287Z,49.77
2022-08-22T03:44:58.911Z,50.11
2022-08-22T03:47:58.738Z,50.25
2022-08-22T03:51:13.106Z,50.05
2022-08-22T03:54:30.694Z,49.97
2022-08-22T03:58:00.752Z,49.72
2022-08-22T04:01:19.601Z,50.02
2022-08-22T04:04:44.949Z,49.74
2022-08-22T04:07:50.688Z,50.45
2022-08-22T04:11:07.838Z,50.34
2022-08-22T04:14:08.635Z,50.25
2022-08-22T04:17:25.767Z,50.67
2022-08-22T04:20:29.280Z,51.04
2022-08-22T04:23:34.969Z,50.93
2022-08-22T04:26:12.699Z,51.03
2022-08-22T04:28:48.018Z,50.87
2022-08-22T04:31:22.601Z,51.21
2022-08-22T04:33:59.244Z,51.15
2022-08-22T04:36:37.968Z,51.48
2022-08-22T04:39:14.918Z,51.54
2022-08-22T04:41:50.180Z,51.40
2022-08-22T04:44:27.222Z,51.53
2022-08-22T04:47:02.751Z,51.14
2022-08-22T04:49:40.090Z,50.80
2022-08-22T04:52:21.027Z,51.55
2022-08-22T04:55:03.915Z,51.60
2022-08-22T04:57:45.463Z,51.16
2022-08-22T05:00:16.526Z,51.13
2022-08-22T05:02:50.497Z,51.39
2022-08-22T05:05:26.779Z,50.68
2022-08-22T05:07:58.445Z,51.22
2022-08-22T05:10:34.235Z,51.20
2022-08-22T05:13:07.951Z,50.96
2022-08-22T05:15:38.820Z,50.90
2022-08-22T05:18:10.691Z,51.36
2022-08-22T05:20:45.898Z,51.22
2022-08-22T05:23:21.348Z,52.07
2022-08-22T05:25:54.925Z,51.99
2022-08-22T05:28:33.762Z,51.97
2022-08-22T05:31:05.964Z,51.74
2022-08-22T05:33:41.656Z,51.91
2022-08-22T05:36:22.854Z,51.95
2022-08-22T05:38:56.674Z,51.73
2022-08-22T05:41:29.558Z,50.97
2022-08-22T05:43:56.922Z,51.00
2022-08-22T05:46:37.270Z,51.24
2022-08-22T05:49:17.501Z,51.26
2022-08-22T05:51:58.589Z,50.25
2022-08-22T05:54:34.619Z,50.85
2022-08-22T05:57:22.270Z,50.81
2022-08-22T06:00:01.029Z,49.86
2022-08-22T06:02:48.609Z,50.37
2022-08-22T06:05:26.124Z,49.68
2022-08-22T06:08:02.753Z,49.96
2022-08-22T06:10:43.061Z,49.56
2022-08-22T06:13:24.325Z,49.18
2022-08-22T06:16:05.671Z,49.04
2022-08-22T06:18:35.992Z,48.90
2022-08-22T06:21:10.005Z,49.29
2022-08-22T06:23:45.070Z,48.76
2022-08-22T06:26:20.927Z,48.45
2022-08-22T06:28:56.630Z,48.62
2022-08-22T06:31:30.990Z,48.45
2022-08-22T06:34:05.474Z,47.47
2022-08-22T06:36:38.625Z,48.09
2022-08-22T06:39:24.685Z,47.00
2022-08-22T06:41:59.753Z,47.25
2022-08-22T06:44:32.617Z,47.24
2022-08-22T06:47:06.068Z,47.13
2022-08-22T06:49:37.500Z,47.82
2022-08-22T06:52:12.134Z,47.57
2022-08-22T06:54:47.457Z,47.53
2022-08-22T06:57:32.103Z,47.14
2022-08-22T07:00:05.038Z,47.40
2022-08-22T07:02:40.647Z,46.86
2022-08-22T07:05:16.624Z,46.76
2022-08-22T07:07:44.529Z,47.05
2022-08-22T07:10:15.977Z,46.48
2022-08-22T07:12:48.174Z,45.88
2022-08-22T07:15:30.040Z,45.97
2022-08-22T07:18:04.396Z,46.18
2022-08-22T07:20:37.010Z,46.09
2022-08-22T07:23:11.013Z,45.07
2022-08-22T07:25:52.464Z,45.36
2022-08-22T07:28:51.279Z,45.00
2022-08-22T07:31:37.834Z,44.69
2022-08-22T07:34:39.364Z,43.86
2022-08-22T07:37:16.164Z,42.91
2022-08-22T07:39:53.774Z,40.85
2022-08-22T07:42:35.374Z,38.99
2022-08-22T07:45:11.482Z,37.88
2022-08-22T07:48:09.701Z,35.23
2022-08-22T07:50:45.861Z,33.58
2022-08-22T07:53:27.010Z,32.64
2022-08-22T07:55:57.741Z,31.18
2022-08-22T07:58:31.562Z,30.70
2022-08-22T08:01:00.209Z,28.81
2022-08-22T08:03:31.140Z,27.80
2022-08-22T08:06:01.419Z,26.68
2022-08-22T08:08:38.035Z,25.94
2022-08-22T08:11:10.999Z,24.98
2022-08-22T08:13:45.058Z,24.42
2022-08-22T08:16:19.367Z,23.43
2022-08-22T08:18:50.301Z,23.62
2022-08-22T08:21:30.015Z,23.34
2022-08-22T08:24:00.742Z,22.35
2022-08-22T08:26:34.126Z,22.57
2022-08-22T08:29:04.732Z,21.80
2022-08-22T08:31:38.158Z,21.86
2022-08-22T08:34:22.962Z,21.46
2022-08-22T08:36:55.373Z,21.16
2022-08-22T08:39:35.484Z,20.49
2022-08-22T08:43:05.161Z,20.12
2022-08-22T08:46:18.651Z,19.83
2022-08-22T08:49:23.942Z,19.02
2022-08-22T08:52:25.965Z,19.46
2022-08-22T08:55:22.033Z,19.42
2022-08-22T08:58:30.162Z,19.55
2022-08-22T09:01:43.782Z,19.00
2022-08-22T09:05:08.897Z,18.13
2022-08-22T09:08:07.706Z,18.21
2022-08-22T09:11:19.310Z,17.48
2022-08-22T09:14:16.458Z,17.98
2022-08-22T09:17:29.055Z,17.83
2022-08-22T09:20:30.276Z,17.27
2022-08-22T09:23:41.305Z,17.76
2022-08-22T09:26:19.091Z,17.99
2022-08-22T09:28:57.373Z,17.82
2022-08-22T09:31:59.701Z,17.64
2022-08-22T09:34:37.979Z,18.10
2022-08-22T09:37:21.656Z,18.75
2022-08-22T09:40:03.659Z,18.26
2022-08-22T09:42:44.956Z,17.95
2022-08-22T09:45:45.574Z,17.19
2022-08-22T09:48:43.597Z,18.20
2022-08-22T09:51:38.681Z,18.15
2022-08-22T09:54:31.563Z,18.91
2022-08-22T09:57:16.252Z,19.91
2022-08-22T10:00:13.546Z,19.75
2022-08-22T10:02:56.348Z,18.91
2022-08-22T10:05:40.636Z,18.15
2022-08-22T10:08:34.780Z,16.84
2022-08-22T10:11:24.725Z,16.76
2022-08-22T10:14:00.541Z,16.39
2022-08-22T10:16:58.117Z,16.40
2022-08-22T10:19:32.476Z,16.22
2022-08-22T10:22:39.357Z,15.48
2022-08-22T10:25:43.197Z,16.24
2022-08-22T10:28:31.564Z,15.88
2022-08-22T10:31:25.521Z,16.09
2022-08-22T10:34:07.893Z,15.56
2022-08-22T10:36:48.912Z,15.50
2022-08-22T10:39:26.860Z,15.64
2022-08-22T10:42:18.749Z,16.90
2022-08-22T10:45:23.574Z,17.98
2022-08-22T10:48:40.881Z,19.04
2022-08-22T10:51:29.022Z,19.82
2022-08-22T10:54:28.709Z,19.94
2022-08-22T10:57:20.910Z,20.59
2022-08-22T11:00:04.150Z,21.52
2022-08-22T11:02:47.758Z,21.30
2022-08-22T11:05:43.792Z,21.98
2022-08-22T11:09:00.511Z,22.45
2022-08-22T11:11:51.433Z,22.27
2022-08-22T11:15:03.397Z,21.63
2022-08-22T11:18:21.409Z,22.27
2022-08-22T11:21:15.177Z,21.18
2022-08-22T11:24:00.914Z,22.11
2022-08-22T11:26:47.244Z,21.35
2022-08-22T11:29:41.226Z,21.95
2022-08-22T11:32:23.229Z,21.55
2022-08-22T11:35:00.687Z,22.47
2022-08-22T11:38:03.093Z,22.97
2022-08-22T11:40:42.063Z,23.05
2022-08-22T11:43:39.145Z,23.45
2022-08-22T11:46:23.865Z,23.48
2022-08-22T11:49:33.567Z,24.18
2022-08-22T11:52:24.141Z,24.42
2022-08-22T11:55:25.384Z,24.58
2022-08-22T11:58:04.570Z,24.33
2022-08-22T12:00:46.035Z,24.37
2022-08-22T12:03:53.993Z,24.34
2022-08-22T12:07:01.792Z,24.52
2022-08-22T12:09:52.009Z,24.88
2022-08-22T12:12:36.245Z,24.67
2022-08-22T12:15:15.912Z,24.88
2022-08-22T12:18:25.051Z,24.88
2022-08-22T12:21:36.752Z,24.75
2022-08-22T12:24:41.657Z,24.79
2022-08-22T12:27:36.429Z,24.68
2022-08-22T12:30:15.903Z,24.70
2022-08-22T12:33:43.569Z,24.58
2022-08-22T12:37:02.071Z,24.44
2022-08-22T12:40:11.360Z,25.33
2022-08-22T12:43:15.829Z,24.86
2022-08-22T12:46:15.320Z,24.55
2022-08-22T12:49:13.801Z,25.11
2022-08-22T12:52:07.011Z,24.32
2022-08-22T12:55:03.124Z,25.37
2022-08-22T12:57:50.561Z,25.02
2022-08-22T13:00:34.755Z,24.70
2022-08-22T13:03:09.601Z,24.72
2022-08-22T13:05:41.268Z,24.87
2022-08-22T13:08:21.557Z,25.45
2022-08-22T13:10:58.395Z,25.26
2022-08-22T13:13:38.563Z,24.85
2022-08-22T13:16:11.673Z,25.17
2022-08-22T13:18:53.599Z,25.12
2022-08-22T13:21:32.099Z,24.89
2022-08-22T13:24:12.578Z,24.47
2022-08-22T13:26:53.255Z,24.41
2022-08-22T13:29:39.626Z,25.05
2022-08-22T13:32:24.108Z,24.81
2022-08-22T13:34:57.882Z,24.75
2022-08-22T13:37:34.906Z,25.13
2022-08-22T13:40:10.864Z,25.16
2022-08-22T13:42:48.823Z,25.22
2022-08-22T13:45:23.173Z,25.22
2022-08-22T13:47:59.494Z,24.30
2022-08-22T13:50:53.694Z,24.49
2022-08-22T13:53:34.384Z,24.63
2022-08-22T13:56:15.415Z,24.46
2022-08-22T13:58:49.135Z,24.21
2022-08-22T14:01:31.201Z,24.34
2022-08-22T14:04:28.370Z,24.61
2022-08-22T14:07:30.409Z,24.25
2022-08-22T14:10:02.997Z,24.55
2022-08-22T14:12:51.116Z,24.17
2022-08-22T14:15:26.354Z,24.19
2022-08-22T14:18:10.849Z,24.48
2022-08-22T14:20:41.636Z,24.98
2022-08-22T14:23:17.951Z,24.46
2022-08-22T14:25:45.960Z,24.44
2022-08-22T14:28:28.763Z,25.11
2022-08-22T14:31:02.551Z,24.35
2022-08-22T14:33:39.791Z,24.38
2022-08-22T14:36:19.172Z,24.61
2022-08-22T14:38:56.147Z,25.24
2022-08-22T14:41:52.411Z,24.96
2022-08-22T14:44:29.660Z,24.27
2022-08-22T14:47:02.114Z,24.94
2022-08-22T14:49:50.465Z,25.01
2022-08-22T14:52:42.523Z,24.66
2022-08-22T14:55:18.470Z,24.80
2022-08-22T14:58:00.538Z,24.72
2022-08-22T15:00:39.764Z,25.05
2022-08-22T15:03:22.793Z,25.42
2022-08-22T15:05:56.036Z,25.25
2022-08-22T15:08:30.354Z,25.76
2022-08-22T15:11:21.846Z,26.23
2022-08-22T15:14:01.869Z,26.88
2022-08-22T15:16:41.806Z,26.77
2022-08-22T15:19:27.251Z,26.68
2022-08-22T15:22:13.713Z,26.61
2022-08-22T15:24:46.080Z,26.10
2022-08-22T15:27:18.061Z,26.38
2022-08-22T15:29:52.500Z,26.33
2022-08-22T15:32:28.936Z,26.90
2022-08-22T15:35:07.970Z,26.46
2022-08-22T15:37:53.722Z,26.70
2022-08-22T15:40:40.866Z,26.39
2022-08-22T15:43:21.158Z,26.26
2022-08-22T15:45:52.543Z,26.09
2022-08-22T15:48:36.338Z,26.21
2022-08-22T15:51:10.352Z,25.93
2022-08-22T15:54:16.357Z,25.53
2022-08-22T15:57:23.164Z,25.46
2022-08-22T15:59:56.607Z,25.39
2022-08-22T16:02:35.180Z,25.92
2022-08-22T16:05:28.214Z,25.57
2022-08-22T16:08:21.292Z,25.29
2022-08-22T16:11:18.029Z,25.61
2022-08-22T16:14:17.444Z,25.37
2022-08-22T16:17:00.878Z,25.66
2022-08-22T16:19:30.603Z,25.21
2022-08-22T16:22:13.788Z,24.82
2022-08-22T16:25:10.454Z,25.44
2022-08-22T16:27:57.098Z,24.88
2022-08-22T16:30:38.284Z,25.33
2022-08-22T16:33:12.212Z,25.46
2022-08-22T16:36:40.024Z,25.17
2022-08-22T16:39:28.602Z,24.86
2022-08-22T16:42:27.007Z,24.61
2022-08-22T16:45:11.624Z,25.45
2022-08-22T16:47:56.405Z,24.85
2022-08-22T16:50:37.446Z,25.17
2022-08-22T16:53:11.039Z,24.96
2022-08-22T16:55:46.392Z,25.08
2022-08-22T16:59:00.832Z,25.46
2022-08-22T17:02:11.054Z,25.62
2022-08-22T17:04:54.804Z,25.67
2022-08-22T17:07:42.966Z,25.80
2022-08-22T17:10:41.588Z,25.61
2022-08-22T17:13:42.880Z,26.04
2022-08-22T17:16:30.410Z,26.35
2022-08-22T17:19:22.666Z,26.33
2022-08-22T17:22:01.382Z,26.32
2022-08-22T17:24:45.675Z,26.47
2022-08-22T17:27:23.875Z,26.35
2022-08-22T17:30:04.849Z,26.66
2022-08-22T17:32:59.035Z,26.77
2022-08-22T17:35:50.174Z,27.78
2022-08-22T17:38:39.856Z,27.64
2022-08-22T17:41:26.054Z,27.88
2022-08-22T17:44:13.857Z,27.80
2022-08-22T17:46:54.280Z,28.22
2022-08-22T17:49:46.609Z,27.79
2022-08-22T17:52:24.265Z,28.61
2022-08-22T17:55:01.995Z,28.52
2022-08-22T17:57:36.593Z,29.12
2022-08-22T18:00:15.306Z,29.79
2022-08-22T18:02:51.699Z,30.07
2022-08-22T18:05:27.642Z,30.00
2022-08-22T18:08:10.030Z,30.49
2022-08-22T18:10:48.095Z,31.65
2022-08-22T18:13:34.756Z,31.28
2022-08-22T18:16:13.886Z,31.88
2022-08-22T18:18:56.087Z,32.17
2022-08-22T18:21:32.135Z,32.83
2022-08-22T18:24:14.258Z,33.05
2022-08-22T18:26:54.868Z,32.97
2022-08-22T18:29:32.368Z,32.81
2022-08-22T18:32:11.026Z,33.16
2022-08-22T18:34:48.128Z,33.04
2022-08-22T18:37:23.171Z,33.65
2022-08-22T18:40:01.291Z,33.99
2022-08-22T18:42:39.690Z,34.55
2022-08-22T18:45:15.377Z,34.47
2022-08-22T18:47:43.009Z,34.24
2022-08-22T18:50:32.495Z,34.79
2022-08-22T18:53:01.138Z,35.23
2022-08-22T18:55:52.433Z,34.73
2022-08-22T18:59:05.830Z,35.40
2022-08-22T19:01:54.469Z,35.65
2022-08-22T19:04:53.975Z,35.78
2022-08-22T19:07:56.443Z,36.17
2022-08-22T19:10:46.575Z,35.79
2022-08-22T19:13:45.853Z,35.55
2022-08-22T19:16:45.721Z,36.11
2022-08-22T19:19:20.747Z,36.03
2022-08-22T19:22:27.181Z,35.63
2022-08-22T19:25:21.347Z,35.71
2022-08-22T19:28:24.281Z,35.83
2022-08-22T19:31:16.465Z,35.51
2022-08-22T19:34:10.240Z,36.05
2022-08-22T19:36:37.772Z,36.09
2022-08-22T19:39:09.326Z,36.32
2022-08-22T19:41:52.400Z,36.57
2022-08-22T19:44:43.036Z,36.36
2022-08-22T19:47:30.658Z,36.20
2022-08-22T19:50:07.099Z,35.67
2022-08-22T19:52:55.271Z,35.62
2022-08-22T19:55:34.404Z,35.12
2022-08-22T19:58:17.687Z,35.08
2022-08-22T20:01:08.542Z,34.86
2022-08-22T20:03:50.768Z,34.43
2022-08-22T20:06:47.800Z,34.56
2022-08-22T20:09:41.062Z,34.65
2022-08-22T20:12:18.371Z,34.48
2022-08-22T20:14:48.234Z,34.57
2022-08-22T20:17:42.185Z,34.62
2022-08-22T20:20:35.338Z,34.70
2022-08-22T20:23:15.822Z,34.61
2022-08-22T20:25:50.269Z,34.85
2022-08-22T20:28:45.858Z,34.94
2022-08-22T20:31:23.343Z,35.32
2022-08-22T20:34:01.299Z,35.27
2022-08-22T20:36:29.588Z,35.52
2022-08-22T20:39:07.048Z,35.62
2022-08-22T20:41:40.203Z,35.41
2022-08-22T20:44:18.461Z,35.82
2022-08-22T20:46:57.709Z,35.69
2022-08-22T20:49:30.325Z,35.78
2022-08-22T20:52:00.551Z,35.71
2022-08-22T20:54:32.736Z,35.91
2022-08-22T20:57:11.585Z,35.58
2022-08-22T20:59:41.961Z,35.85
2022-08-22T21:02:15.956Z,35.80
2022-08-22T21:04:56.545Z,35.79
2022-08-22T21:07:29.493Z,35.54
2022-08-22T21:10:25.424Z,35.76
2022-08-22T21:13:10.631Z,35.65
2022-08-22T21:15:45.255Z,35.66
2022-08-22T21:18:15.120Z,35.73
2022-08-22T21:20:42.543Z,35.74
2022-08-22T21:23:20.783Z,35.63
2022-08-22T21:25:58.999Z,35.47
2022-08-22T21:28:34.933Z,35.52
2022-08-22T21:31:12.703Z,35.36
2022-08-22T21:33:45.251Z,35.08
2022-08-22T21:36:16.792Z,34.64
2022-08-22T21:38:53.904Z,33.73
2022-08-22T21:41:38.367Z,33.57
2022-08-22T21:44:27.800Z,32.99
2022-08-22T21:46:56.776Z,33.15
2022-08-22T21:49:29.542Z,33.02
2022-08-22T21:51:56.862Z,32.96
2022-08-22T21:54:42.253Z,33.16
2022-08-22T21:57:35.885Z,33.00
2022-08-22T22:00:13.252Z,33.26
2022-08-22T22:02:42.250Z,32.69
2022-08-22T22:05:14.687Z,32.81
2022-08-22T22:07:45.910Z,33.24
2022-08-22T22:10:18.288Z,32.51
2022-08-22T22:12:51.868Z,32.67
2022-08-22T22:15:23.923Z,32.72
2022-08-22T22:17:52.041Z,32.81
2022-08-22T22:20:22.360Z,32.96
2022-08-22T22:22:50.575Z,32.93
2022-08-22T22:25:40.346Z,33.45
2022-08-22T22:28:16.862Z,33.65
2022-08-22T22:30:50.401Z,33.40
2022-08-22T22:33:18.134Z,33.58
2022-08-22T22:35:45.677Z,33.49
2022-08-22T22:38:13.786Z,33.80
2022-08-22T22:40:41.887Z,33.56
2022-08-22T22:43:11.642Z,33.81
2022-08-22T22:45:39.729Z,34.08
2022-08-22T22:48:08.077Z,33.91
2022-08-22T22:50:40.543Z,34.26
2022-08-22T22:53:09.510Z,34.17
2022-08-22T22:55:37.271Z,34.58
2022-08-22T22:58:10.614Z,34.38
2022-08-22T23:00:38.095Z,35.23
2022-08-22T23:03:06.977Z,35.08
2022-08-22T23:05:35.364Z,34.95
2022-08-22T23:08:04.609Z,35.27
2022-08-22T23:10:33.298Z,34.96
2022-08-22T23:13:00.794Z,35.23
2022-08-22T23:15:29.444Z,34.98
2022-08-22T23:17:57.117Z,35.49
2022-08-22T23:20:24.874Z,34.89
2022-08-22T23:22:52.289Z,34.65
2022-08-22T23:25:19.809Z,34.93
2022-08-22T23:27:48.668Z,34.76
2022-08-22T23:30:20.933Z,34.84
2022-08-22T23:32:49.699Z,34.93
2022-08-22T23:35:17.235Z,35.21
2022-08-22T23:37:44.871Z,35.14
2022-08-22T23:40:12.957Z,35.16
2022-08-22T23:42:40.604Z,35.33
2022-08-22T23:45:08.621Z,35.27
2022-08-22T23:47:35.954Z,35.86
2022-08-22T23:50:06.375Z,35.21
2022-08-22T23:52:34.125Z,35.61
2022-08-22T23:55:01.592Z,35.93
2022-08-22T23:57:29.415Z,36.15
2022-08-22T23:59:58.691Z,36.10
